Lampang Airport
VTCL : now visible

Airfield :











YOU CAN JOIN US ON...

 
LOGIN :

Register | Disclaimer

   EN    FR    IT 

 









Legend :    VFR   Marginal VFR   IFR   Intensive IFR   Very Intensive IFR
Visi :
Ceiling :
>= 8 km
>= 3000ft
5 to 8 km
1000 to 3000 ft
1500m to 5 km
500 to 1000 ft
800 to 1500m
200 to 500 ft
< 800m
< 200 ft
Symbols :   Thunderstorms  Fog  Heavy snow  Heavy precipitations  Wind > 20 kt






- Airport Elevation : 811 ft
- IATA code : LPT


VTCL - Lampang

CURRENT METAR :
  • 110200Z 00000KT 7000 NSC 17/12 Q1018 NOSIG

EXPIRED METARs :
  • 110100Z 00000KT 5000 BR NSC 12/11 Q1018 NOSIG
  • 110000Z 00000KT 5000 2000S BR NSC 10/09 Q1017 NOSIG

TAF TAF VTCL
Valid from the 11 at 00:00 until the 12 at 00:00 UTC


102300Z 1100/1124 03005KT 5000 BR NSC
BECMG 1101/1103 7000 NSW
BECMG 1104/1106 CAVOK



MET'MAP, your aeronautical weather chart ! - Copyright ORBIFLY December 2007 - Disclaimer

ORBIFLY MET'MAP TEAM :

Programming & Development : Alexandra Zaïnal
Concept & original design : Baudouin d'Aumeries
Assistance for programming : Marc-Olivier Méhu
Technical & hardware support : Manuel Goepfert

Contact : metmap@orbifly.com




SOURCES & CREDITS :

   NOAA       Earth
Advisory